sensor_id;sensor_type;location;lat;lon;timestamp;P1;durP1;ratioP1;P2;durP2;ratioP2
62724;SDS011;49026;52.600;4.694;2022-12-29T00:01:24;8.85;;;2.35;;
62724;SDS011;49026;52.600;4.694;2022-12-29T00:03:50;6.45;;;2.13;;
62724;SDS011;49026;52.600;4.694;2022-12-29T00:06:15;11.00;;;2.92;;
62724;SDS011;49026;52.600;4.694;2022-12-29T00:08:43;7.63;;;2.25;;
62724;SDS011;49026;52.600;4.694;2022-12-29T00:11:12;6.47;;;2.10;;
62724;SDS011;49026;52.600;4.694;2022-12-29T00:13:43;7.50;;;2.78;;
62724;SDS011;49026;52.600;4.694;2022-12-29T00:16:27;9.23;;;2.67;;
62724;SDS011;49026;52.600;4.694;2022-12-29T00:18:54;11.50;;;2.83;;
62724;SDS011;49026;52.600;4.694;2022-12-29T00:21:20;7.95;;;2.60;;
62724;SDS011;49026;52.600;4.694;2022-12-29T00:24:05;6.80;;;2.00;;
62724;SDS011;49026;52.600;4.694;2022-12-29T00:26:47;7.03;;;2.00;;
62724;SDS011;49026;52.600;4.694;2022-12-29T00:29:33;5.75;;;2.03;;
62724;SDS011;49026;52.600;4.694;2022-12-29T00:32:17;17.08;;;2.40;;
62724;SDS011;49026;52.600;4.694;2022-12-29T00:35:01;4.90;;;2.22;;
62724;SDS011;49026;52.600;4.694;2022-12-29T00:37:40;3.53;;;1.33;;
62724;SDS011;49026;52.600;4.694;2022-12-29T00:40:27;8.30;;;1.88;;
62724;SDS011;49026;52.600;4.694;2022-12-29T00:43:11;6.28;;;2.00;;
62724;SDS011;49026;52.600;4.694;2022-12-29T00:45:55;2.90;;;1.95;;
62724;SDS011;49026;52.600;4.694;2022-12-29T00:48:20;8.50;;;3.13;;
62724;SDS011;49026;52.600;4.694;2022-12-29T00:51:07;10.18;;;3.35;;
62724;SDS011;49026;52.600;4.694;2022-12-29T00:53:33;9.20;;;3.42;;
62724;SDS011;49026;52.600;4.694;2022-12-29T00:55:58;12.20;;;4.60;;
62724;SDS011;49026;52.600;4.694;2022-12-29T00:58:27;7.07;;;4.15;;
62724;SDS011;49026;52.600;4.694;2022-12-29T01:01:00;7.95;;;2.95;;
62724;SDS011;49026;52.600;4.694;2022-12-29T01:03:26;7.80;;;3.42;;
62724;SDS011;49026;52.600;4.694;2022-12-29T01:05:51;13.60;;;4.00;;
62724;SDS011;49026;52.600;4.694;2022-12-29T01:08:16;11.48;;;3.38;;
62724;SDS011;49026;52.600;4.694;2022-12-29T01:10:41;8.48;;;3.00;;
62724;SDS011;49026;52.600;4.694;2022-12-29T01:13:07;12.85;;;4.22;;
62724;SDS011;49026;52.600;4.694;2022-12-29T01:15:32;20.35;;;4.57;;
62724;SDS011;49026;52.600;4.694;2022-12-29T01:17:57;19.30;;;4.32;;
62724;SDS011;49026;52.600;4.694;2022-12-29T01:20:25;18.77;;;4.32;;
62724;SDS011;49026;52.600;4.694;2022-12-29T01:22:52;15.55;;;4.72;;
62724;SDS011;49026;52.600;4.694;2022-12-29T01:25:17;12.32;;;3.20;;
62724;SDS011;49026;52.600;4.694;2022-12-29T01:27:43;8.75;;;2.03;;
62724;SDS011;49026;52.600;4.694;2022-12-29T01:30:08;23.15;;;2.95;;
62724;SDS011;49026;52.600;4.694;2022-12-29T01:32:36;9.65;;;2.63;;
62724;SDS011;49026;52.600;4.694;2022-12-29T01:35:02;9.70;;;2.67;;
62724;SDS011;49026;52.600;4.694;2022-12-29T01:37:30;13.50;;;2.70;;
62724;SDS011;49026;52.600;4.694;2022-12-29T01:39:55;15.13;;;2.90;;
62724;SDS011;49026;52.600;4.694;2022-12-29T01:42:22;15.07;;;2.13;;
62724;SDS011;49026;52.600;4.694;2022-12-29T01:44:54;18.33;;;2.42;;
62724;SDS011;49026;52.600;4.694;2022-12-29T01:47:24;22.15;;;2.28;;
62724;SDS011;49026;52.600;4.694;2022-12-29T01:49:54;22.60;;;2.90;;
62724;SDS011;49026;52.600;4.694;2022-12-29T01:52:22;33.10;;;2.88;;
62724;SDS011;49026;52.600;4.694;2022-12-29T01:54:54;15.07;;;1.77;;
62724;SDS011;49026;52.600;4.694;2022-12-29T01:57:26;19.25;;;2.70;;
62724;SDS011;49026;52.600;4.694;2022-12-29T02:00:00;18.38;;;2.30;;
62724;SDS011;49026;52.600;4.694;2022-12-29T02:02:29;21.50;;;2.83;;
62724;SDS011;49026;52.600;4.694;2022-12-29T02:04:55;25.98;;;2.78;;
62724;SDS011;49026;52.600;4.694;2022-12-29T02:07:28;16.90;;;2.50;;
62724;SDS011;49026;52.600;4.694;2022-12-29T02:09:54;14.55;;;2.33;;
62724;SDS011;49026;52.600;4.694;2022-12-29T02:12:20;24.45;;;3.10;;
62724;SDS011;49026;52.600;4.694;2022-12-29T02:14:48;27.63;;;3.03;;
62724;SDS011;49026;52.600;4.694;2022-12-29T02:28:48;18.05;;;1.98;;
62724;SDS011;49026;52.600;4.694;2022-12-29T02:34:00;21.83;;;2.83;;
62724;SDS011;49026;52.600;4.694;2022-12-29T02:50:57;12.82;;;2.10;;
62724;SDS011;49026;52.600;4.694;2022-12-29T02:53:35;23.33;;;2.97;;
62724;SDS011;49026;52.600;4.694;2022-12-29T02:56:20;20.75;;;3.83;;
62724;SDS011;49026;52.600;4.694;2022-12-29T02:58:45;17.13;;;3.10;;
62724;SDS011;49026;52.600;4.694;2022-12-29T03:09:35;17.17;;;2.90;;
62724;SDS011;49026;52.600;4.694;2022-12-29T03:12:19;17.63;;;2.72;;
62724;SDS011;49026;52.600;4.694;2022-12-29T03:15:13;28.55;;;3.40;;
62724;SDS011;49026;52.600;4.694;2022-12-29T03:20:54;34.55;;;4.90;;
62724;SDS011;49026;52.600;4.694;2022-12-29T03:23:26;35.58;;;3.95;;
62724;SDS011;49026;52.600;4.694;2022-12-29T03:25:54;43.88;;;5.82;;
62724;SDS011;49026;52.600;4.694;2022-12-29T03:28:32;22.98;;;3.50;;
62724;SDS011;49026;52.600;4.694;2022-12-29T03:31:06;26.33;;;4.18;;
62724;SDS011;49026;52.600;4.694;2022-12-29T03:33:34;37.72;;;4.53;;
62724;SDS011;49026;52.600;4.694;2022-12-29T03:36:03;49.53;;;5.53;;
62724;SDS011;49026;52.600;4.694;2022-12-29T03:41:31;40.58;;;5.30;;
62724;SDS011;49026;52.600;4.694;2022-12-29T03:44:00;43.95;;;4.93;;
62724;SDS011;49026;52.600;4.694;2022-12-29T03:46:25;42.13;;;5.32;;
62724;SDS011;49026;52.600;4.694;2022-12-29T03:48:50;28.63;;;4.57;;
62724;SDS011;49026;52.600;4.694;2022-12-29T03:51:16;33.17;;;5.20;;
62724;SDS011;49026;52.600;4.694;2022-12-29T03:53:41;30.45;;;4.55;;
62724;SDS011;49026;52.600;4.694;2022-12-29T03:56:08;25.00;;;3.30;;
62724;SDS011;49026;52.600;4.694;2022-12-29T03:58:34;31.75;;;4.78;;
62724;SDS011;49026;52.600;4.694;2022-12-29T04:01:02;27.38;;;4.15;;
62724;SDS011;49026;52.600;4.694;2022-12-29T04:03:27;30.73;;;5.20;;
62724;SDS011;49026;52.600;4.694;2022-12-29T04:05:53;26.83;;;4.07;;
62724;SDS011;49026;52.600;4.694;2022-12-29T04:08:18;29.17;;;3.15;;
62724;SDS011;49026;52.600;4.694;2022-12-29T04:10:43;26.17;;;3.58;;
62724;SDS011;49026;52.600;4.694;2022-12-29T04:13:08;16.65;;;3.30;;
62724;SDS011;49026;52.600;4.694;2022-12-29T04:15:36;30.08;;;3.10;;
62724;SDS011;49026;52.600;4.694;2022-12-29T04:18:01;27.65;;;3.67;;
62724;SDS011;49026;52.600;4.694;2022-12-29T04:20:27;18.92;;;2.78;;
62724;SDS011;49026;52.600;4.694;2022-12-29T04:23:11;17.25;;;2.70;;
62724;SDS011;49026;52.600;4.694;2022-12-29T04:25:38;17.58;;;3.10;;
62724;SDS011;49026;52.600;4.694;2022-12-29T04:28:04;23.67;;;3.40;;
62724;SDS011;49026;52.600;4.694;2022-12-29T04:30:30;22.35;;;3.40;;
62724;SDS011;49026;52.600;4.694;2022-12-29T04:32:57;25.65;;;3.28;;
62724;SDS011;49026;52.600;4.694;2022-12-29T04:35:23;29.02;;;3.25;;
62724;SDS011;49026;52.600;4.694;2022-12-29T04:37:48;21.67;;;3.53;;
62724;SDS011;49026;52.600;4.694;2022-12-29T04:40:16;16.10;;;2.92;;
62724;SDS011;49026;52.600;4.694;2022-12-29T04:42:41;14.68;;;2.88;;
62724;SDS011;49026;52.600;4.694;2022-12-29T04:45:06;21.30;;;3.25;;
62724;SDS011;49026;52.600;4.694;2022-12-29T04:47:32;15.75;;;3.20;;
62724;SDS011;49026;52.600;4.694;2022-12-29T04:50:02;26.92;;;3.83;;
62724;SDS011;49026;52.600;4.694;2022-12-29T04:52:28;14.27;;;2.70;;
62724;SDS011;49026;52.600;4.694;2022-12-29T04:54:53;26.70;;;5.05;;
62724;SDS011;49026;52.600;4.694;2022-12-29T04:57:18;46.40;;;6.10;;
62724;SDS011;49026;52.600;4.694;2022-12-29T04:59:43;28.10;;;4.65;;
62724;SDS011;49026;52.600;4.694;2022-12-29T05:02:11;29.27;;;4.28;;
62724;SDS011;49026;52.600;4.694;2022-12-29T05:04:36;25.90;;;4.80;;
62724;SDS011;49026;52.600;4.694;2022-12-29T05:07:01;37.67;;;5.05;;
62724;SDS011;49026;52.600;4.694;2022-12-29T05:09:29;27.77;;;3.25;;
62724;SDS011;49026;52.600;4.694;2022-12-29T05:11:54;29.38;;;4.85;;
62724;SDS011;49026;52.600;4.694;2022-12-29T05:14:22;24.65;;;4.90;;
62724;SDS011;49026;52.600;4.694;2022-12-29T05:16:48;26.70;;;4.03;;
62724;SDS011;49026;52.600;4.694;2022-12-29T05:19:13;37.70;;;6.20;;
62724;SDS011;49026;52.600;4.694;2022-12-29T05:21:41;26.50;;;4.05;;
62724;SDS011;49026;52.600;4.694;2022-12-29T05:24:06;54.03;;;5.25;;
62724;SDS011;49026;52.600;4.694;2022-12-29T05:26:32;28.73;;;4.07;;
62724;SDS011;49026;52.600;4.694;2022-12-29T05:28:57;28.42;;;3.75;;
62724;SDS011;49026;52.600;4.694;2022-12-29T05:31:22;33.88;;;4.68;;
62724;SDS011;49026;52.600;4.694;2022-12-29T05:33:47;30.08;;;4.50;;
62724;SDS011;49026;52.600;4.694;2022-12-29T05:36:20;31.20;;;4.60;;
62724;SDS011;49026;52.600;4.694;2022-12-29T05:38:48;32.97;;;4.45;;
62724;SDS011;49026;52.600;4.694;2022-12-29T05:41:16;27.85;;;5.15;;
62724;SDS011;49026;52.600;4.694;2022-12-29T05:43:41;31.42;;;5.20;;
62724;SDS011;49026;52.600;4.694;2022-12-29T05:46:07;19.00;;;3.13;;
62724;SDS011;49026;52.600;4.694;2022-12-29T05:48:32;27.35;;;5.03;;
62724;SDS011;49026;52.600;4.694;2022-12-29T05:51:00;33.20;;;4.57;;
62724;SDS011;49026;52.600;4.694;2022-12-29T05:53:25;25.48;;;3.55;;
62724;SDS011;49026;52.600;4.694;2022-12-29T05:55:53;24.27;;;3.97;;
62724;SDS011;49026;52.600;4.694;2022-12-29T05:58:18;49.88;;;6.55;;
62724;SDS011;49026;52.600;4.694;2022-12-29T06:00:43;33.90;;;4.55;;
62724;SDS011;49026;52.600;4.694;2022-12-29T06:03:09;25.60;;;4.00;;
62724;SDS011;49026;52.600;4.694;2022-12-29T06:05:34;35.33;;;5.70;;
62724;SDS011;49026;52.600;4.694;2022-12-29T06:08:00;20.83;;;3.85;;
62724;SDS011;49026;52.600;4.694;2022-12-29T06:10:25;17.40;;;3.33;;
62724;SDS011;49026;52.600;4.694;2022-12-29T06:12:53;33.53;;;3.25;;
62724;SDS011;49026;52.600;4.694;2022-12-29T06:15:21;46.53;;;5.25;;
62724;SDS011;49026;52.600;4.694;2022-12-29T06:17:48;26.83;;;4.63;;
62724;SDS011;49026;52.600;4.694;2022-12-29T06:20:14;33.05;;;5.85;;
62724;SDS011;49026;52.600;4.694;2022-12-29T06:22:39;34.08;;;4.50;;
62724;SDS011;49026;52.600;4.694;2022-12-29T06:25:05;34.65;;;4.88;;
62724;SDS011;49026;52.600;4.694;2022-12-29T06:27:30;31.63;;;6.15;;
62724;SDS011;49026;52.600;4.694;2022-12-29T06:29:56;44.40;;;7.68;;
62724;SDS011;49026;52.600;4.694;2022-12-29T06:32:21;48.80;;;5.65;;
62724;SDS011;49026;52.600;4.694;2022-12-29T06:34:46;29.48;;;3.63;;
62724;SDS011;49026;52.600;4.694;2022-12-29T06:37:14;31.80;;;5.97;;
62724;SDS011;49026;52.600;4.694;2022-12-29T06:39:41;38.30;;;5.43;;
62724;SDS011;49026;52.600;4.694;2022-12-29T06:42:08;46.60;;;5.28;;
62724;SDS011;49026;52.600;4.694;2022-12-29T06:44:34;33.75;;;4.15;;
62724;SDS011;49026;52.600;4.694;2022-12-29T06:46:59;39.75;;;4.90;;
62724;SDS011;49026;52.600;4.694;2022-12-29T06:49:25;20.42;;;3.88;;
62724;SDS011;49026;52.600;4.694;2022-12-29T06:51:50;32.17;;;5.35;;
62724;SDS011;49026;52.600;4.694;2022-12-29T06:54:15;39.75;;;4.70;;
62724;SDS011;49026;52.600;4.694;2022-12-29T06:56:41;41.72;;;6.20;;
62724;SDS011;49026;52.600;4.694;2022-12-29T06:59:06;45.22;;;4.93;;
62724;SDS011;49026;52.600;4.694;2022-12-29T07:01:32;31.80;;;6.20;;
62724;SDS011;49026;52.600;4.694;2022-12-29T07:03:57;43.67;;;7.68;;
62724;SDS011;49026;52.600;4.694;2022-12-29T07:06:22;32.28;;;4.18;;
62724;SDS011;49026;52.600;4.694;2022-12-29T07:08:50;46.60;;;7.28;;
62724;SDS011;49026;52.600;4.694;2022-12-29T07:11:19;41.55;;;5.43;;
62724;SDS011;49026;52.600;4.694;2022-12-29T07:13:45;36.78;;;4.72;;
62724;SDS011;49026;52.600;4.694;2022-12-29T07:16:11;28.17;;;5.90;;
62724;SDS011;49026;52.600;4.694;2022-12-29T07:18:36;41.97;;;5.68;;
62724;SDS011;49026;52.600;4.694;2022-12-29T07:21:02;42.00;;;5.85;;
62724;SDS011;49026;52.600;4.694;2022-12-29T07:23:27;47.17;;;7.32;;
62724;SDS011;49026;52.600;4.694;2022-12-29T07:26:02;45.22;;;5.35;;
62724;SDS011;49026;52.600;4.694;2022-12-29T07:28:30;28.38;;;4.38;;
62724;SDS011;49026;52.600;4.694;2022-12-29T07:30:57;28.75;;;4.32;;
62724;SDS011;49026;52.600;4.694;2022-12-29T07:33:24;44.70;;;5.40;;
62724;SDS011;49026;52.600;4.694;2022-12-29T07:35:50;35.05;;;5.07;;
62724;SDS011;49026;52.600;4.694;2022-12-29T07:38:18;31.85;;;4.40;;
62724;SDS011;49026;52.600;4.694;2022-12-29T07:40:44;44.85;;;4.70;;
62724;SDS011;49026;52.600;4.694;2022-12-29T07:43:11;38.05;;;5.43;;
62724;SDS011;49026;52.600;4.694;2022-12-29T07:45:36;21.75;;;3.60;;
62724;SDS011;49026;52.600;4.694;2022-12-29T07:48:02;31.25;;;4.43;;
62724;SDS011;49026;52.600;4.694;2022-12-29T07:50:27;36.08;;;5.03;;
62724;SDS011;49026;52.600;4.694;2022-12-29T07:52:53;29.83;;;5.53;;
62724;SDS011;49026;52.600;4.694;2022-12-29T07:55:18;48.72;;;5.30;;
62724;SDS011;49026;52.600;4.694;2022-12-29T07:57:43;40.55;;;6.05;;
62724;SDS011;49026;52.600;4.694;2022-12-29T08:00:11;16.98;;;2.75;;
62724;SDS011;49026;52.600;4.694;2022-12-29T08:02:37;44.47;;;5.22;;
62724;SDS011;49026;52.600;4.694;2022-12-29T08:05:02;38.35;;;4.97;;
62724;SDS011;49026;52.600;4.694;2022-12-29T08:07:28;34.38;;;4.47;;
62724;SDS011;49026;52.600;4.694;2022-12-29T08:09:53;40.15;;;5.93;;
62724;SDS011;49026;52.600;4.694;2022-12-29T08:12:19;48.22;;;6.07;;
62724;SDS011;49026;52.600;4.694;2022-12-29T08:14:44;45.95;;;6.80;;
62724;SDS011;49026;52.600;4.694;2022-12-29T08:17:09;23.65;;;4.28;;
62724;SDS011;49026;52.600;4.694;2022-12-29T08:19:35;15.70;;;2.85;;
62724;SDS011;49026;52.600;4.694;2022-12-29T08:22:06;36.40;;;5.65;;
62724;SDS011;49026;52.600;4.694;2022-12-29T08:24:31;37.03;;;5.07;;
62724;SDS011;49026;52.600;4.694;2022-12-29T08:26:56;35.95;;;4.35;;
62724;SDS011;49026;52.600;4.694;2022-12-29T08:29:22;25.42;;;4.22;;
62724;SDS011;49026;52.600;4.694;2022-12-29T08:31:49;33.83;;;4.25;;
62724;SDS011;49026;52.600;4.694;2022-12-29T08:34:15;30.23;;;4.32;;
62724;SDS011;49026;52.600;4.694;2022-12-29T08:36:40;29.48;;;4.15;;
62724;SDS011;49026;52.600;4.694;2022-12-29T08:39:05;27.10;;;4.32;;
62724;SDS011;49026;52.600;4.694;2022-12-29T08:41:31;25.20;;;3.28;;
62724;SDS011;49026;52.600;4.694;2022-12-29T08:44:03;26.92;;;4.32;;
62724;SDS011;49026;52.600;4.694;2022-12-29T08:46:29;25.35;;;4.22;;
62724;SDS011;49026;52.600;4.694;2022-12-29T08:48:57;31.15;;;4.90;;
62724;SDS011;49026;52.600;4.694;2022-12-29T08:51:25;33.38;;;3.70;;
62724;SDS011;49026;52.600;4.694;2022-12-29T08:53:50;51.45;;;6.75;;
62724;SDS011;49026;52.600;4.694;2022-12-29T08:56:16;35.00;;;4.13;;
62724;SDS011;49026;52.600;4.694;2022-12-29T08:58:43;45.60;;;5.68;;
62724;SDS011;49026;52.600;4.694;2022-12-29T09:01:09;34.00;;;4.70;;
62724;SDS011;49026;52.600;4.694;2022-12-29T09:03:35;35.00;;;5.40;;
62724;SDS011;49026;52.600;4.694;2022-12-29T09:06:00;41.42;;;5.07;;
62724;SDS011;49026;52.600;4.694;2022-12-29T09:08:28;36.65;;;5.45;;
62724;SDS011;49026;52.600;4.694;2022-12-29T09:10:55;65.65;;;6.10;;
62724;SDS011;49026;52.600;4.694;2022-12-29T09:13:33;61.45;;;7.07;;
62724;SDS011;49026;52.600;4.694;2022-12-29T09:15:59;63.58;;;6.68;;
62724;SDS011;49026;52.600;4.694;2022-12-29T09:18:26;62.83;;;7.22;;
62724;SDS011;49026;52.600;4.694;2022-12-29T09:20:58;78.13;;;9.05;;
62724;SDS011;49026;52.600;4.694;2022-12-29T09:23:25;79.20;;;7.65;;
62724;SDS011;49026;52.600;4.694;2022-12-29T09:25:51;64.07;;;7.72;;
62724;SDS011;49026;52.600;4.694;2022-12-29T09:28:19;80.78;;;8.13;;
62724;SDS011;49026;52.600;4.694;2022-12-29T09:30:44;65.72;;;8.30;;
62724;SDS011;49026;52.600;4.694;2022-12-29T09:33:10;68.50;;;8.15;;
62724;SDS011;49026;52.600;4.694;2022-12-29T09:35:35;72.07;;;9.52;;
62724;SDS011;49026;52.600;4.694;2022-12-29T09:38:01;72.38;;;7.95;;
62724;SDS011;49026;52.600;4.694;2022-12-29T09:40:30;72.43;;;10.02;;
62724;SDS011;49026;52.600;4.694;2022-12-29T09:48:04;29.75;;;4.90;;
62724;SDS011;49026;52.600;4.694;2022-12-29T09:50:39;39.03;;;5.55;;
62724;SDS011;49026;52.600;4.694;2022-12-29T09:55:51;18.60;;;3.72;;
62724;SDS011;49026;52.600;4.694;2022-12-29T10:00:57;35.60;;;4.65;;
62724;SDS011;49026;52.600;4.694;2022-12-29T10:03:49;23.70;;;4.45;;
62724;SDS011;49026;52.600;4.694;2022-12-29T10:12:30;24.95;;;4.70;;
62724;SDS011;49026;52.600;4.694;2022-12-29T10:18:08;23.88;;;3.65;;
62724;SDS011;49026;52.600;4.694;2022-12-29T10:23:45;28.30;;;4.47;;
62724;SDS011;49026;52.600;4.694;2022-12-29T10:26:17;25.45;;;3.40;;
62724;SDS011;49026;52.600;4.694;2022-12-29T10:29:04;29.65;;;4.05;;
62724;SDS011;49026;52.600;4.694;2022-12-29T10:31:35;26.73;;;4.53;;
62724;SDS011;49026;52.600;4.694;2022-12-29T10:34:15;26.88;;;3.40;;
62724;SDS011;49026;52.600;4.694;2022-12-29T10:39:50;23.25;;;3.58;;
62724;SDS011;49026;52.600;4.694;2022-12-29T10:42:28;22.30;;;3.20;;
62724;SDS011;49026;52.600;4.694;2022-12-29T10:45:03;23.77;;;4.13;;
62724;SDS011;49026;52.600;4.694;2022-12-29T10:47:32;18.50;;;3.28;;
62724;SDS011;49026;52.600;4.694;2022-12-29T10:50:03;19.52;;;3.50;;
62724;SDS011;49026;52.600;4.694;2022-12-29T10:52:29;20.83;;;3.47;;
62724;SDS011;49026;52.600;4.694;2022-12-29T10:55:00;22.70;;;2.92;;
62724;SDS011;49026;52.600;4.694;2022-12-29T10:57:36;19.85;;;3.15;;
62724;SDS011;49026;52.600;4.694;2022-12-29T11:00:21;12.82;;;3.03;;
62724;SDS011;49026;52.600;4.694;2022-12-29T11:08:12;12.50;;;2.45;;
62724;SDS011;49026;52.600;4.694;2022-12-29T11:10:43;12.38;;;2.72;;
62724;SDS011;49026;52.600;4.694;2022-12-29T11:13:16;21.50;;;3.38;;
62724;SDS011;49026;52.600;4.694;2022-12-29T11:15:50;13.55;;;2.47;;
62724;SDS011;49026;52.600;4.694;2022-12-29T11:18:22;13.02;;;2.08;;
62724;SDS011;49026;52.600;4.694;2022-12-29T11:20:49;12.00;;;2.70;;
62724;SDS011;49026;52.600;4.694;2022-12-29T11:23:32;16.38;;;2.47;;
62724;SDS011;49026;52.600;4.694;2022-12-29T11:26:12;19.90;;;3.40;;
62724;SDS011;49026;52.600;4.694;2022-12-29T11:31:42;12.73;;;1.88;;
62724;SDS011;49026;52.600;4.694;2022-12-29T11:36:46;18.65;;;3.22;;
62724;SDS011;49026;52.600;4.694;2022-12-29T11:42:20;21.98;;;3.92;;
62724;SDS011;49026;52.600;4.694;2022-12-29T11:44:49;14.02;;;2.30;;
62724;SDS011;49026;52.600;4.694;2022-12-29T11:47:23;23.08;;;2.92;;
62724;SDS011;49026;52.600;4.694;2022-12-29T11:49:55;12.15;;;1.90;;
62724;SDS011;49026;52.600;4.694;2022-12-29T11:52:25;20.65;;;2.85;;
62724;SDS011;49026;52.600;4.694;2022-12-29T11:54:53;17.10;;;2.50;;
62724;SDS011;49026;52.600;4.694;2022-12-29T11:57:20;15.05;;;2.60;;
62724;SDS011;49026;52.600;4.694;2022-12-29T11:59:52;13.45;;;2.35;;
62724;SDS011;49026;52.600;4.694;2022-12-29T12:04:45;17.17;;;3.00;;
62724;SDS011;49026;52.600;4.694;2022-12-29T12:07:32;13.80;;;2.72;;
62724;SDS011;49026;52.600;4.694;2022-12-29T12:10:04;16.02;;;2.58;;
62724;SDS011;49026;52.600;4.694;2022-12-29T12:15:08;19.52;;;3.03;;
62724;SDS011;49026;52.600;4.694;2022-12-29T12:20:54;22.50;;;2.67;;
62724;SDS011;49026;52.600;4.694;2022-12-29T12:23:30;11.13;;;2.78;;
62724;SDS011;49026;52.600;4.694;2022-12-29T12:28:44;13.48;;;2.53;;
62724;SDS011;49026;52.600;4.694;2022-12-29T12:33:47;19.00;;;3.10;;
62724;SDS011;49026;52.600;4.694;2022-12-29T12:42:23;26.83;;;2.90;;
62724;SDS011;49026;52.600;4.694;2022-12-29T12:50:39;34.22;;;3.20;;
62724;SDS011;49026;52.600;4.694;2022-12-29T12:56:28;19.27;;;2.42;;
62724;SDS011;49026;52.600;4.694;2022-12-29T13:04:44;21.27;;;3.35;;
62724;SDS011;49026;52.600;4.694;2022-12-29T13:07:38;27.30;;;3.53;;
62724;SDS011;49026;52.600;4.694;2022-12-29T13:15:43;16.85;;;2.03;;
62724;SDS011;49026;52.600;4.694;2022-12-29T13:18:18;15.35;;;2.30;;
62724;SDS011;49026;52.600;4.694;2022-12-29T13:21:01;27.40;;;4.05;;
62724;SDS011;49026;52.600;4.694;2022-12-29T13:29:05;17.15;;;1.95;;
62724;SDS011;49026;52.600;4.694;2022-12-29T13:34:24;22.20;;;2.88;;
62724;SDS011;49026;52.600;4.694;2022-12-29T13:37:01;19.20;;;2.40;;
62724;SDS011;49026;52.600;4.694;2022-12-29T13:39:43;29.00;;;3.47;;
62724;SDS011;49026;52.600;4.694;2022-12-29T13:42:14;25.58;;;3.38;;
62724;SDS011;49026;52.600;4.694;2022-12-29T13:44:45;21.00;;;2.50;;
62724;SDS011;49026;52.600;4.694;2022-12-29T13:47:21;15.00;;;3.40;;
62724;SDS011;49026;52.600;4.694;2022-12-29T13:49:49;16.67;;;2.47;;
62724;SDS011;49026;52.600;4.694;2022-12-29T13:58:08;12.48;;;2.40;;
62724;SDS011;49026;52.600;4.694;2022-12-29T14:00:49;16.33;;;2.63;;
62724;SDS011;49026;52.600;4.694;2022-12-29T14:06:28;14.23;;;1.85;;
62724;SDS011;49026;52.600;4.694;2022-12-29T14:08:56;20.55;;;2.58;;
62724;SDS011;49026;52.600;4.694;2022-12-29T14:11:35;20.92;;;2.55;;
62724;SDS011;49026;52.600;4.694;2022-12-29T14:16:47;14.10;;;2.63;;
62724;SDS011;49026;52.600;4.694;2022-12-29T14:19:16;12.63;;;1.52;;
62724;SDS011;49026;52.600;4.694;2022-12-29T14:21:59;18.77;;;3.80;;
62724;SDS011;49026;52.600;4.694;2022-12-29T14:26:59;20.90;;;2.22;;
62724;SDS011;49026;52.600;4.694;2022-12-29T14:33:00;18.20;;;2.97;;
62724;SDS011;49026;52.600;4.694;2022-12-29T14:38:14;27.50;;;4.13;;
62724;SDS011;49026;52.600;4.694;2022-12-29T14:40:42;22.88;;;3.53;;
62724;SDS011;49026;52.600;4.694;2022-12-29T14:43:20;22.38;;;3.38;;
62724;SDS011;49026;52.600;4.694;2022-12-29T14:45:57;25.08;;;3.30;;
62724;SDS011;49026;52.600;4.694;2022-12-29T14:48:38;29.80;;;3.00;;
62724;SDS011;49026;52.600;4.694;2022-12-29T14:51:16;20.73;;;3.28;;
62724;SDS011;49026;52.600;4.694;2022-12-29T14:53:55;22.10;;;4.15;;
62724;SDS011;49026;52.600;4.694;2022-12-29T14:56:24;21.08;;;3.38;;
62724;SDS011;49026;52.600;4.694;2022-12-29T14:59:00;21.23;;;3.13;;
62724;SDS011;49026;52.600;4.694;2022-12-29T15:01:38;19.17;;;3.78;;
62724;SDS011;49026;52.600;4.694;2022-12-29T15:04:15;31.83;;;4.07;;
62724;SDS011;49026;52.600;4.694;2022-12-29T15:06:47;26.05;;;3.95;;
62724;SDS011;49026;52.600;4.694;2022-12-29T15:11:51;34.28;;;3.97;;
62724;SDS011;49026;52.600;4.694;2022-12-29T15:14:32;29.10;;;3.03;;
62724;SDS011;49026;52.600;4.694;2022-12-29T15:17:10;30.55;;;3.65;;
62724;SDS011;49026;52.600;4.694;2022-12-29T15:19:48;9.27;;;2.63;;
62724;SDS011;49026;52.600;4.694;2022-12-29T15:22:13;21.15;;;3.05;;
62724;SDS011;49026;52.600;4.694;2022-12-29T15:24:42;28.52;;;3.80;;
62724;SDS011;49026;52.600;4.694;2022-12-29T15:27:10;21.15;;;3.03;;
62724;SDS011;49026;52.600;4.694;2022-12-29T15:29:45;28.40;;;4.22;;
62724;SDS011;49026;52.600;4.694;2022-12-29T15:32:21;26.30;;;3.58;;
62724;SDS011;49026;52.600;4.694;2022-12-29T15:34:52;16.13;;;2.83;;
62724;SDS011;49026;52.600;4.694;2022-12-29T15:37:31;19.08;;;3.03;;
62724;SDS011;49026;52.600;4.694;2022-12-29T15:39:58;28.00;;;3.92;;
62724;SDS011;49026;52.600;4.694;2022-12-29T15:42:38;21.73;;;3.33;;
62724;SDS011;49026;52.600;4.694;2022-12-29T15:45:11;17.23;;;2.35;;
62724;SDS011;49026;52.600;4.694;2022-12-29T15:47:38;21.80;;;3.47;;
62724;SDS011;49026;52.600;4.694;2022-12-29T15:50:15;24.38;;;3.00;;
62724;SDS011;49026;52.600;4.694;2022-12-29T15:52:47;18.15;;;2.92;;
62724;SDS011;49026;52.600;4.694;2022-12-29T15:55:18;17.92;;;3.42;;
62724;SDS011;49026;52.600;4.694;2022-12-29T15:57:48;11.85;;;2.72;;
62724;SDS011;49026;52.600;4.694;2022-12-29T16:00:21;18.30;;;3.03;;
62724;SDS011;49026;52.600;4.694;2022-12-29T16:05:20;14.50;;;2.35;;
62724;SDS011;49026;52.600;4.694;2022-12-29T16:07:59;11.48;;;1.88;;
62724;SDS011;49026;52.600;4.694;2022-12-29T16:15:52;16.88;;;3.05;;
62724;SDS011;49026;52.600;4.694;2022-12-29T16:18:29;17.33;;;3.08;;
62724;SDS011;49026;52.600;4.694;2022-12-29T16:20:59;19.77;;;2.72;;
62724;SDS011;49026;52.600;4.694;2022-12-29T16:23:26;22.08;;;3.13;;
62724;SDS011;49026;52.600;4.694;2022-12-29T16:25:55;22.42;;;3.60;;
62724;SDS011;49026;52.600;4.694;2022-12-29T16:28:23;14.27;;;2.25;;
62724;SDS011;49026;52.600;4.694;2022-12-29T16:31:03;21.98;;;2.72;;
62724;SDS011;49026;52.600;4.694;2022-12-29T16:33:44;17.27;;;1.80;;
62724;SDS011;49026;52.600;4.694;2022-12-29T16:39:37;18.23;;;2.03;;
62724;SDS011;49026;52.600;4.694;2022-12-29T16:41:37;10.18;;;1.85;;
62724;SDS011;49026;52.600;4.694;2022-12-29T16:44:15;10.40;;;1.83;;
62724;SDS011;49026;52.600;4.694;2022-12-29T16:46:44;19.65;;;2.83;;
62724;SDS011;49026;52.600;4.694;2022-12-29T16:49:23;13.18;;;2.13;;
62724;SDS011;49026;52.600;4.694;2022-12-29T16:51:52;17.23;;;2.65;;
62724;SDS011;49026;52.600;4.694;2022-12-29T16:54:23;19.85;;;3.22;;
62724;SDS011;49026;52.600;4.694;2022-12-29T17:02:00;17.98;;;3.30;;
62724;SDS011;49026;52.600;4.694;2022-12-29T17:04:31;14.45;;;2.55;;
62724;SDS011;49026;52.600;4.694;2022-12-29T17:06:59;17.98;;;2.92;;
62724;SDS011;49026;52.600;4.694;2022-12-29T17:09:25;25.63;;;3.15;;
62724;SDS011;49026;52.600;4.694;2022-12-29T17:11:53;29.25;;;4.13;;
62724;SDS011;49026;52.600;4.694;2022-12-29T17:19:59;14.70;;;2.88;;
62724;SDS011;49026;52.600;4.694;2022-12-29T17:22:29;19.30;;;3.47;;
62724;SDS011;49026;52.600;4.694;2022-12-29T17:24:56;23.20;;;3.58;;
62724;SDS011;49026;52.600;4.694;2022-12-29T17:27:27;18.38;;;2.53;;
62724;SDS011;49026;52.600;4.694;2022-12-29T17:30:16;22.30;;;3.45;;
62724;SDS011;49026;52.600;4.694;2022-12-29T17:32:57;15.38;;;3.13;;
62724;SDS011;49026;52.600;4.694;2022-12-29T17:35:25;15.65;;;2.63;;
62724;SDS011;49026;52.600;4.694;2022-12-29T17:37:53;25.30;;;4.53;;
62724;SDS011;49026;52.600;4.694;2022-12-29T17:40:19;11.13;;;2.00;;
62724;SDS011;49026;52.600;4.694;2022-12-29T17:42:54;33.75;;;4.50;;
62724;SDS011;49026;52.600;4.694;2022-12-29T17:45:24;13.68;;;2.90;;
62724;SDS011;49026;52.600;4.694;2022-12-29T17:47:50;20.23;;;3.50;;